createdAt,value
2016-04-07T12:50:00.033Z,455
2016-04-07T12:50:18.255Z,460
2016-04-07T12:51:19.039Z,475
2016-04-07T12:52:18.432Z,510
2016-04-07T12:53:27.655Z,495
2016-04-07T12:54:18.532Z,470
2016-04-07T12:55:27.972Z,445
2016-04-07T12:56:18.634Z,465
2016-04-07T12:57:19.949Z,485
2016-04-07T12:58:18.655Z,485
2016-04-07T12:59:18.204Z,485
2016-04-07T13:00:20.613Z,470
2016-04-07T13:01:18.522Z,450
2016-04-07T13:02:28.338Z,425
2016-04-07T13:03:18.527Z,380
2016-04-07T13:04:29.093Z,350
2016-04-07T13:05:19.596Z,330
2016-04-07T13:06:24.957Z,255
2016-04-07T13:07:18.741Z,245
2016-04-07T13:08:19.416Z,235
2016-04-07T13:09:26.637Z,250
2016-04-07T13:10:18.140Z,275
2016-04-07T13:11:20.768Z,280
2016-04-07T13:12:19.583Z,290
2016-04-07T13:13:18.774Z,335
2016-04-07T13:14:18.495Z,380
2016-04-07T13:15:18.717Z,425
2016-04-07T13:16:27.953Z,450
2016-04-07T13:17:27.378Z,455
2016-04-07T13:18:18.599Z,465
2016-04-07T13:19:18.258Z,430
2016-04-07T13:20:18.323Z,350
2016-04-07T13:22:18.361Z,305
2016-04-07T13:23:18.331Z,275
2016-04-07T13:24:35.303Z,300
2016-04-07T13:25:19.119Z,290
2016-04-07T13:26:18.386Z,275
2016-04-07T13:27:18.092Z,325
2016-04-07T13:29:18.087Z,265
2016-04-07T13:30:18.449Z,255
2016-04-07T13:31:18.546Z,280
2016-04-07T13:32:26.080Z,285
2016-04-07T13:33:18.238Z,290
2016-04-07T13:34:18.632Z,295
2016-04-07T13:35:17.837Z,305
2016-04-07T13:36:19.246Z,325
2016-04-07T13:37:19.170Z,340
2016-04-07T13:38:18.282Z,335
2016-04-07T13:39:18.270Z,335
2016-04-07T13:40:19.038Z,380
